createdAt,value
2019-05-11T00:02:13.632Z,6.47
2019-05-11T00:05:21.562Z,6.38
2019-05-11T00:08:29.611Z,6.34
2019-05-11T00:11:38.560Z,6.40
2019-05-11T00:14:46.550Z,6.50
2019-05-11T00:17:54.609Z,6.54
2019-05-11T00:21:04.556Z,6.54
2019-05-11T00:24:12.636Z,6.35
2019-05-11T00:27:20.549Z,6.34
2019-05-11T00:30:28.559Z,6.26
2019-05-11T00:33:36.750Z,6.39
2019-05-11T00:36:44.550Z,6.39
2019-05-11T00:39:53.520Z,6.45
2019-05-11T00:43:01.663Z,6.40
2019-05-11T00:46:09.550Z,6.40
2019-05-11T00:49:19.577Z,6.38
2019-05-11T00:52:27.886Z,6.52
2019-05-11T00:55:36.078Z,6.52
2019-05-11T00:58:44.031Z,6.56
2019-05-11T01:01:51.772Z,6.56
2019-05-11T01:04:59.551Z,6.57
2019-05-11T01:08:07.701Z,6.63
2019-05-11T01:11:15.588Z,6.63
2019-05-11T01:14:23.722Z,6.56
2019-05-11T01:17:32.062Z,6.56
2019-05-11T01:20:39.925Z,6.59
2019-05-11T01:23:48.377Z,6.67
2019-05-11T01:26:56.549Z,6.69
2019-05-11T01:30:04.562Z,6.69
2019-05-11T01:33:12.542Z,6.74
2019-05-11T01:36:20.912Z,6.63
2019-05-11T01:39:28.698Z,6.63
2019-05-11T01:42:36.570Z,6.70
2019-05-11T01:45:44.918Z,6.78
2019-05-11T01:48:53.110Z,6.78
2019-05-11T01:52:01.402Z,6.88
2019-05-11T01:55:08.433Z,6.91
2019-05-11T01:58:16.524Z,6.73
2019-05-11T02:01:25.662Z,6.94
2019-05-11T02:04:34.520Z,6.94
2019-05-11T02:07:42.569Z,7.04
2019-05-11T02:10:50.550Z,6.78
2019-05-11T02:13:58.520Z,6.98
2019-05-11T02:17:06.517Z,7.11
2019-05-11T02:20:15.048Z,7.09
2019-05-11T02:23:23.223Z,7.09
2019-05-11T02:26:31.269Z,7.26
2019-05-11T02:29:41.498Z,7.32
2019-05-11T02:32:49.228Z,7.36
2019-05-11T02:35:57.248Z,7.39
2019-05-11T02:39:07.258Z,7.39
2019-05-11T02:42:15.335Z,7.29
2019-05-11T02:45:39.400Z,7.07
2019-05-11T02:48:46.401Z,7.29
2019-05-11T02:51:54.256Z,7.23
2019-05-11T02:55:02.831Z,7.23
2019-05-11T02:58:11.251Z,7.31
2019-05-11T03:01:19.471Z,7.38
2019-05-11T03:04:26.498Z,7.31
2019-05-11T03:07:34.314Z,7.19
2019-05-11T03:10:42.546Z,7.34
2019-05-11T03:13:50.535Z,7.22
2019-05-11T03:17:33.224Z,7.22
2019-05-11T03:20:41.544Z,7.22
2019-05-11T03:23:49.536Z,7.32
2019-05-11T03:26:57.627Z,7.26
2019-05-11T03:30:06.548Z,7.18
2019-05-11T03:33:14.682Z,7.23
2019-05-11T03:36:22.620Z,7.23
2019-05-11T03:39:31.534Z,7.20
2019-05-11T03:42:39.610Z,7.38
2019-05-11T03:45:47.397Z,7.38
2019-05-11T03:48:55.391Z,7.38
2019-05-11T03:52:02.397Z,7.43
2019-05-11T03:55:10.562Z,7.41
2019-05-11T03:58:19.078Z,7.42
2019-05-11T04:01:27.056Z,7.42
2019-05-11T04:04:35.405Z,7.51
2019-05-11T04:07:42.325Z,7.52
2019-05-11T04:10:50.362Z,7.57
2019-05-11T04:13:59.591Z,7.33
2019-05-11T04:17:07.555Z,7.58
2019-05-11T04:20:15.542Z,7.55
2019-05-11T04:23:24.620Z,7.61
2019-05-11T04:26:32.552Z,7.66
2019-05-11T04:29:41.242Z,7.66
2019-05-11T04:32:49.420Z,7.65
2019-05-11T04:35:57.401Z,7.70
2019-05-11T04:39:06.896Z,7.72
2019-05-11T04:42:14.914Z,7.50
2019-05-11T04:45:22.756Z,7.55
2019-05-11T04:48:30.723Z,7.60
2019-05-11T04:51:38.613Z,7.69
2019-05-11T04:54:46.904Z,7.68
2019-05-11T04:57:54.730Z,7.68
2019-05-11T05:01:03.312Z,7.69
2019-05-11T05:04:14.486Z,7.67
2019-05-11T05:07:20.983Z,7.70
2019-05-11T05:10:28.702Z,7.80
2019-05-11T05:13:38.354Z,7.53
2019-05-11T05:16:46.399Z,7.83
2019-05-11T05:19:53.279Z,7.86
2019-05-11T05:23:01.018Z,7.86
2019-05-11T05:26:08.987Z,8.12
2019-05-11T05:29:17.708Z,8.26
2019-05-11T05:32:25.602Z,8.29
2019-05-11T05:35:33.557Z,8.43
2019-05-11T05:38:41.613Z,8.40
2019-05-11T05:41:57.153Z,8.40
2019-05-11T05:44:59.504Z,8.35
2019-05-11T05:48:07.574Z,8.29
2019-05-11T05:51:15.594Z,8.51
2019-05-11T05:54:24.249Z,8.53
2019-05-11T05:57:32.686Z,8.53
2019-05-11T06:00:40.580Z,8.31
2019-05-11T06:03:48.547Z,8.65
2019-05-11T06:06:56.530Z,8.67
2019-05-11T06:10:04.867Z,8.73
2019-05-11T06:13:12.741Z,8.73
2019-05-11T06:16:20.624Z,8.30
2019-05-11T06:19:29.327Z,8.58
2019-05-11T06:22:37.664Z,8.58
2019-05-11T06:25:45.954Z,8.43
2019-05-11T06:28:54.225Z,8.63
2019-05-11T06:32:02.692Z,8.60
2019-05-11T06:35:12.484Z,8.60
2019-05-11T06:38:19.504Z,8.30
2019-05-11T06:41:27.688Z,8.51
2019-05-11T06:44:35.604Z,8.62
2019-05-11T06:47:43.830Z,8.55
2019-05-11T06:50:52.334Z,8.55
2019-05-11T06:53:59.516Z,8.30
2019-05-11T06:57:07.737Z,8.42
2019-05-11T07:00:16.267Z,8.47
2019-05-11T07:03:24.546Z,8.23
2019-05-11T07:06:34.236Z,8.87
2019-05-11T07:09:42.480Z,8.87
2019-05-11T07:12:52.439Z,8.76
2019-05-11T07:16:00.451Z,8.61
2019-05-11T07:19:08.553Z,8.85
2019-05-11T07:22:17.834Z,8.43
2019-05-11T07:25:25.664Z,8.43
2019-05-11T07:28:33.561Z,8.30
2019-05-11T07:31:42.531Z,8.29
2019-05-11T07:34:50.631Z,8.29
2019-05-11T07:37:59.256Z,8.47
2019-05-11T07:41:08.752Z,8.52
2019-05-11T07:44:18.948Z,8.51
2019-05-11T07:47:27.814Z,8.75
2019-05-11T07:50:38.536Z,8.75
2019-05-11T07:53:48.820Z,8.92
2019-05-11T07:56:58.375Z,9.09
2019-05-11T08:00:09.444Z,9.03
2019-05-11T08:03:18.119Z,9.14
2019-05-11T08:06:28.617Z,8.98
2019-05-11T08:09:37.860Z,9.01
2019-05-11T08:12:45.245Z,9.26
2019-05-11T08:15:53.541Z,9.32
2019-05-11T08:19:01.573Z,8.96
2019-05-11T08:22:09.573Z,8.72
2019-05-11T08:25:18.213Z,8.59
2019-05-11T08:28:25.368Z,8.59
2019-05-11T08:31:33.321Z,8.58
2019-05-11T08:34:41.720Z,8.72
2019-05-11T08:37:49.520Z,8.72
2019-05-11T08:41:00.519Z,8.54
2019-05-11T08:44:09.036Z,8.69
2019-05-11T08:47:20.595Z,8.69
2019-05-11T08:50:28.292Z,8.88
2019-05-11T08:53:38.546Z,8.84
2019-05-11T08:56:45.914Z,8.77
2019-05-11T08:59:54.918Z,8.81
2019-05-11T09:03:02.925Z,8.72
2019-05-11T09:06:10.994Z,8.92
2019-05-11T09:09:19.255Z,9.05
2019-05-11T09:12:28.814Z,8.93
2019-05-11T09:15:40.657Z,9.00
2019-05-11T09:18:48.096Z,8.94
2019-05-11T09:21:58.784Z,8.95
2019-05-11T09:25:05.750Z,8.83
2019-05-11T09:28:13.555Z,8.86
2019-05-11T09:31:21.668Z,8.74
2019-05-11T09:34:29.658Z,8.74
2019-05-11T09:37:38.400Z,8.95
2019-05-11T09:40:48.023Z,8.89
2019-05-11T09:43:58.510Z,8.81
2019-05-11T09:47:08.385Z,8.78
2019-05-11T09:50:17.914Z,8.66
2019-05-11T09:53:25.555Z,8.71
2019-05-11T09:56:34.257Z,8.71
2019-05-11T09:59:42.606Z,8.71
2019-05-11T10:02:52.261Z,8.60
2019-05-11T10:06:00.434Z,8.60
2019-05-11T10:09:08.474Z,8.69
2019-05-11T10:12:18.097Z,8.69
2019-05-11T10:15:27.988Z,8.69
2019-05-11T10:18:38.547Z,8.76
2019-05-11T10:21:48.839Z,8.72
2019-05-11T10:24:58.254Z,8.67
2019-05-11T10:28:08.635Z,8.66
2019-05-11T10:31:17.787Z,8.66
2019-05-11T10:34:25.420Z,8.70
2019-05-11T10:37:33.545Z,8.71
2019-05-11T10:40:44.534Z,8.57
2019-05-11T10:43:52.600Z,8.57
2019-05-11T10:47:00.589Z,8.52
2019-05-11T10:50:09.142Z,8.45
2019-05-11T10:53:18.483Z,8.45
2019-05-11T10:56:28.400Z,8.56
2019-05-11T10:59:39.257Z,8.56
2019-05-11T11:07:19.480Z,8.69
2019-05-11T11:10:29.733Z,8.58
2019-05-11T11:13:38.661Z,8.77
2019-05-11T11:16:48.006Z,8.77
2019-05-11T11:19:58.081Z,8.66
2019-05-11T11:23:09.290Z,8.66
2019-05-11T11:26:18.676Z,8.64
2019-05-11T11:29:28.800Z,8.62
2019-05-11T11:32:38.282Z,8.65
2019-05-11T11:35:47.682Z,8.68
2019-05-11T11:38:58.193Z,8.73
2019-05-11T11:42:08.292Z,8.63
2019-05-11T11:45:19.640Z,8.84
2019-05-11T11:48:28.440Z,9.10
2019-05-11T11:51:37.888Z,8.97
2019-05-11T11:54:47.900Z,8.92
2019-05-11T11:57:58.620Z,9.00
2019-05-11T12:01:08.193Z,8.95
2019-05-11T12:04:18.832Z,8.73
2019-05-11T12:07:25.623Z,8.67
2019-05-11T12:10:37.812Z,8.64
2019-05-11T12:17:13.231Z,8.72
2019-05-11T12:20:23.791Z,8.92
2019-05-11T12:23:31.734Z,8.95
2019-05-11T12:26:39.745Z,9.24
2019-05-11T12:29:48.013Z,9.13
2019-05-11T12:32:57.730Z,9.26
2019-05-11T12:36:07.929Z,9.48
2019-05-11T12:39:19.193Z,9.33
2019-05-11T12:42:29.244Z,9.74
2019-05-11T12:45:37.736Z,9.91
2019-05-11T12:48:50.366Z,9.75
2019-05-11T12:52:02.409Z,9.97
2019-05-11T12:55:17.893Z,9.89
2019-05-11T12:58:28.071Z,9.64
2019-05-11T13:01:38.169Z,9.79
2019-05-11T13:04:47.809Z,9.59
2019-05-11T13:07:58.719Z,9.52
2019-05-11T13:11:07.884Z,9.55
2019-05-11T13:14:18.428Z,9.24
2019-05-11T13:17:36.728Z,9.53
2019-05-11T13:20:37.766Z,9.74
2019-05-11T13:23:45.707Z,9.68
2019-05-11T13:26:53.607Z,9.34
2019-05-11T13:30:02.345Z,9.37
2019-05-11T13:33:09.323Z,9.36
2019-05-11T13:36:18.588Z,9.41
2019-05-11T13:39:28.546Z,9.43
2019-05-11T13:42:38.608Z,9.65
2019-05-11T13:45:48.585Z,9.59
2019-05-11T13:48:57.943Z,9.23
2019-05-11T13:52:08.462Z,9.23
2019-05-11T13:55:18.258Z,8.83
2019-05-11T13:58:27.836Z,8.85
2019-05-11T14:01:38.065Z,9.10
2019-05-11T14:04:47.595Z,9.31
2019-05-11T14:07:58.680Z,9.15
2019-05-11T14:11:08.604Z,9.23
2019-05-11T14:14:18.416Z,9.00
2019-05-11T14:17:27.940Z,9.03
2019-05-11T14:20:35.001Z,9.00
2019-05-11T14:23:43.643Z,9.01
2019-05-11T14:26:52.241Z,9.35
2019-05-11T14:30:04.117Z,8.99
2019-05-11T14:33:13.272Z,8.99
2019-05-11T14:36:21.297Z,8.93
2019-05-11T14:39:29.910Z,8.91
2019-05-11T14:42:38.403Z,9.22
2019-05-11T14:45:48.625Z,9.42
2019-05-11T14:48:58.467Z,9.15
2019-05-11T14:52:08.412Z,9.44
2019-05-11T14:55:18.556Z,9.67
2019-05-11T14:58:28.010Z,9.64
2019-05-11T15:01:38.187Z,9.64
2019-05-11T15:04:48.421Z,9.50
2019-05-11T15:07:58.149Z,9.54
2019-05-11T15:11:08.269Z,9.54
2019-05-11T15:14:21.284Z,9.03
2019-05-11T15:17:28.292Z,9.07
2019-05-11T15:20:38.347Z,9.17
2019-05-11T15:23:47.745Z,9.17
2019-05-11T15:26:57.575Z,9.17
2019-05-11T15:30:07.974Z,8.88
2019-05-11T15:33:18.529Z,8.74
2019-05-11T15:36:28.555Z,8.85
2019-05-11T15:39:37.854Z,8.85
2019-05-11T15:42:48.519Z,8.65
2019-05-11T15:45:57.861Z,8.78
2019-05-11T15:49:08.616Z,8.49
2019-05-11T15:52:18.771Z,8.52
2019-05-11T15:55:27.630Z,8.26
2019-05-11T15:58:38.197Z,8.31
2019-05-11T16:01:48.798Z,8.31
2019-05-11T16:04:58.247Z,8.29
2019-05-11T16:08:08.362Z,8.25
2019-05-11T16:11:17.966Z,8.40
2019-05-11T16:14:28.263Z,8.02
2019-05-11T16:17:40.107Z,8.02
2019-05-11T16:20:49.901Z,7.98
2019-05-11T16:23:58.511Z,7.95
2019-05-11T16:27:08.667Z,7.77
2019-05-11T16:30:21.398Z,7.80
2019-05-11T16:33:28.054Z,7.90
2019-05-11T16:36:38.665Z,8.04
2019-05-11T16:39:49.136Z,7.79
2019-05-11T16:42:58.768Z,7.88
2019-05-11T16:46:09.555Z,7.82
2019-05-11T16:49:28.676Z,7.76
2019-05-11T16:52:29.595Z,7.76
2019-05-11T16:55:37.829Z,7.68
2019-05-11T16:58:48.463Z,7.68
2019-05-11T17:01:58.593Z,7.84
2019-05-11T17:05:07.804Z,7.81
2019-05-11T17:08:15.586Z,7.81
2019-05-11T17:11:23.776Z,7.72
2019-05-11T17:14:32.233Z,7.72
2019-05-11T17:17:41.542Z,7.71
2019-05-11T17:20:49.959Z,7.78
2019-05-11T17:23:58.143Z,7.78
2019-05-11T17:27:08.845Z,7.80
2019-05-11T17:30:19.205Z,7.60
2019-05-11T17:33:28.056Z,7.64
2019-05-11T17:36:36.916Z,7.63
2019-05-11T17:39:47.977Z,7.54
2019-05-11T17:42:58.522Z,7.56
2019-05-11T17:46:08.013Z,7.43
2019-05-11T17:49:18.325Z,7.47
2019-05-11T17:52:28.107Z,7.39
2019-05-11T17:55:38.242Z,7.42
2019-05-11T17:58:48.413Z,7.36
2019-05-11T18:01:58.082Z,7.34
2019-05-11T18:05:08.822Z,7.34
2019-05-11T18:08:18.622Z,7.32
2019-05-11T18:11:26.705Z,7.22
2019-05-11T18:14:36.149Z,7.17
2019-05-11T18:17:44.264Z,7.18
2019-05-11T18:20:52.614Z,7.11
2019-05-11T18:24:00.523Z,7.12
2019-05-11T18:27:09.566Z,7.12
2019-05-11T18:30:18.599Z,7.09
2019-05-11T18:33:27.757Z,7.04
2019-05-11T18:36:38.188Z,7.04
2019-05-11T18:39:45.762Z,7.09
2019-05-11T18:42:53.946Z,7.00
2019-05-11T18:46:02.041Z,6.98
2019-05-11T18:49:11.529Z,6.94
2019-05-11T18:52:20.255Z,6.97
2019-05-11T18:55:28.539Z,6.92
2019-05-11T18:58:38.409Z,6.80
2019-05-11T19:01:45.505Z,6.80
2019-05-11T19:04:53.575Z,6.81
2019-05-11T19:08:02.617Z,6.91
2019-05-11T19:11:11.260Z,6.82
2019-05-11T19:14:20.257Z,6.82
2019-05-11T19:17:29.167Z,6.75
2019-05-11T19:20:45.684Z,6.75
2019-05-11T19:23:49.512Z,6.67
2019-05-11T19:26:58.847Z,6.72
2019-05-11T19:30:08.919Z,6.73
2019-05-11T19:33:18.939Z,6.74
2019-05-11T19:36:27.755Z,6.68
2019-05-11T19:39:38.591Z,6.73
2019-05-11T19:42:54.859Z,6.74
2019-05-11T19:46:04.210Z,6.71
2019-05-11T19:49:15.004Z,6.66
2019-05-11T19:52:23.040Z,6.70
2019-05-11T19:55:31.255Z,6.59
2019-05-11T19:58:39.594Z,6.46
2019-05-11T20:01:48.765Z,6.51
2019-05-11T20:04:58.589Z,6.51
2019-05-11T20:08:08.560Z,6.54
2019-05-11T20:11:18.655Z,6.19
2019-05-11T20:14:25.429Z,6.19
2019-05-11T20:17:34.269Z,6.12
2019-05-11T20:20:45.320Z,5.99
2019-05-11T20:23:54.079Z,5.90
2019-05-11T20:27:02.498Z,5.75
2019-05-11T20:30:10.669Z,5.74
2019-05-11T20:33:19.091Z,5.76
2019-05-11T20:36:27.612Z,5.65
2019-05-11T20:39:37.751Z,5.65
2019-05-11T20:42:44.390Z,5.65
2019-05-11T20:45:52.563Z,5.71
2019-05-11T20:49:01.097Z,5.65
2019-05-11T20:52:09.391Z,5.65
2019-05-11T20:55:18.241Z,5.68
2019-05-11T20:58:28.885Z,5.66
2019-05-11T21:01:39.264Z,5.63
2019-05-11T21:04:49.061Z,5.56
2019-05-11T21:07:59.765Z,5.52
2019-05-11T21:11:08.630Z,5.58
2019-05-11T21:14:18.185Z,5.56
2019-05-11T21:17:26.584Z,5.56
2019-05-11T21:20:34.960Z,5.41
2019-05-11T21:23:44.305Z,5.41
2019-05-11T21:26:52.629Z,5.42
2019-05-11T21:30:00.540Z,5.44
2019-05-11T21:33:09.284Z,5.44
2019-05-11T21:36:18.121Z,5.44
2019-05-11T21:39:28.540Z,5.51
2019-05-11T21:42:38.618Z,5.49
2019-05-11T21:45:47.632Z,5.59
2019-05-11T21:48:58.148Z,5.53
2019-05-11T21:52:07.798Z,5.38
2019-05-11T21:55:16.282Z,5.38
2019-05-11T21:58:24.644Z,5.61
2019-05-11T22:01:35.319Z,5.55
2019-05-11T22:04:43.848Z,5.53
2019-05-11T22:07:51.922Z,5.53
2019-05-11T22:11:00.291Z,5.49
2019-05-11T22:14:08.445Z,5.51
2019-05-11T22:17:18.208Z,5.53
2019-05-11T22:20:28.837Z,5.51
2019-05-11T22:23:38.572Z,5.46
2019-05-11T22:26:45.590Z,5.46
2019-05-11T22:29:54.597Z,5.61
2019-05-11T22:33:02.529Z,5.54
2019-05-11T22:36:10.536Z,5.60
2019-05-11T22:39:20.892Z,5.53
2019-05-11T22:42:28.582Z,5.53
2019-05-11T22:45:38.335Z,5.57
2019-05-11T22:48:48.402Z,5.49
2019-05-11T22:51:59.742Z,5.52
2019-05-11T22:55:11.125Z,5.52
2019-05-11T22:58:17.950Z,5.51
2019-05-11T23:01:28.248Z,5.49
2019-05-11T23:04:38.100Z,5.52
2019-05-11T23:07:48.127Z,5.44
2019-05-11T23:10:56.931Z,5.40
2019-05-11T23:14:05.337Z,5.44
2019-05-11T23:17:12.331Z,5.45
2019-05-11T23:20:20.584Z,5.41
2019-05-11T23:23:28.591Z,5.40
2019-05-11T23:26:38.639Z,5.40
2019-05-11T23:29:47.716Z,5.30
2019-05-11T23:32:58.592Z,5.30
2019-05-11T23:36:07.797Z,5.35
2019-05-11T23:39:17.853Z,5.34
2019-05-11T23:42:25.710Z,5.19
2019-05-11T23:45:33.724Z,5.18
2019-05-11T23:48:41.562Z,5.02
2019-05-11T23:51:49.541Z,4.95
2019-05-11T23:54:58.939Z,4.67
2019-05-11T23:58:08.189Z,4.67
